createdAt,value
2022-11-09T00:00:50.876Z,0.00
2022-11-09T00:01:50.929Z,0.00
2022-11-09T00:02:50.857Z,0.00
2022-11-09T00:03:50.891Z,0.00
2022-11-09T00:04:50.814Z,0.00
2022-11-09T00:05:50.859Z,0.00
2022-11-09T00:06:50.875Z,0.00
2022-11-09T00:07:50.893Z,0.00
2022-11-09T00:08:50.781Z,0.00
2022-11-09T00:09:50.832Z,0.00
2022-11-09T00:10:50.804Z,0.00
2022-11-09T00:11:50.762Z,0.00
2022-11-09T00:12:50.756Z,0.00
2022-11-09T00:13:50.732Z,0.00
2022-11-09T00:14:50.759Z,0.00
2022-11-09T00:15:50.775Z,0.00
2022-11-09T00:16:50.705Z,0.00
2022-11-09T00:17:50.689Z,0.00
2022-11-09T00:18:50.756Z,0.00
2022-11-09T00:19:50.646Z,0.00
2022-11-09T00:20:50.688Z,0.00
2022-11-09T00:21:50.646Z,0.00
2022-11-09T00:22:50.616Z,0.00
2022-11-09T00:23:50.603Z,0.00
2022-11-09T00:24:50.633Z,0.00
2022-11-09T00:25:50.596Z,0.00
2022-11-09T00:26:50.599Z,0.00
2022-11-09T00:27:50.567Z,0.00
2022-11-09T00:28:50.561Z,0.00
2022-11-09T00:29:50.723Z,0.00
2022-11-09T00:30:50.537Z,0.00
2022-11-09T00:31:50.577Z,0.00
2022-11-09T00:32:50.590Z,0.00
2022-11-09T00:33:50.495Z,0.00
2022-11-09T00:34:50.488Z,0.00
2022-11-09T00:35:50.519Z,0.00
2022-11-09T00:36:50.564Z,0.00
2022-11-09T00:37:50.656Z,0.00
2022-11-09T00:38:50.448Z,0.00
2022-11-09T00:39:50.450Z,0.00
2022-11-09T00:40:50.456Z,0.00
2022-11-09T00:41:50.410Z,0.00
2022-11-09T00:42:50.469Z,0.00
2022-11-09T00:43:50.446Z,0.00
2022-11-09T00:44:50.382Z,0.00
2022-11-09T00:45:50.404Z,0.00
2022-11-09T00:46:50.374Z,0.00
2022-11-09T00:47:50.601Z,0.00
2022-11-09T00:48:50.337Z,0.00
2022-11-09T00:49:50.339Z,0.00
2022-11-09T00:50:50.377Z,0.00
2022-11-09T00:51:50.358Z,0.00
2022-11-09T00:52:50.418Z,0.00
2022-11-09T00:53:50.320Z,0.00
2022-11-09T00:54:50.295Z,0.00
2022-11-09T00:55:50.300Z,0.00
2022-11-09T00:56:50.317Z,0.00
2022-11-09T00:57:50.282Z,0.00
2022-11-09T00:58:50.225Z,0.00
2022-11-09T00:59:50.243Z,0.00
2022-11-09T01:00:50.313Z,0.00
2022-11-09T01:01:50.335Z,0.00
2022-11-09T01:02:50.177Z,0.00
2022-11-09T01:03:50.192Z,0.00
2022-11-09T01:04:50.184Z,0.00
2022-11-09T01:05:50.166Z,0.00
2022-11-09T01:06:50.227Z,0.00
2022-11-09T01:07:50.177Z,0.00
2022-11-09T01:08:50.127Z,0.00
2022-11-09T01:09:50.115Z,0.00
2022-11-09T01:10:50.090Z,0.00
2022-11-09T01:11:50.102Z,0.00
2022-11-09T01:12:50.118Z,0.00
2022-11-09T01:13:50.056Z,0.00
2022-11-09T01:14:50.058Z,0.00
2022-11-09T01:15:50.078Z,0.00
2022-11-09T01:16:50.063Z,0.00
2022-11-09T01:17:50.057Z,0.00
2022-11-09T01:18:50.048Z,0.00
2022-11-09T01:19:50.044Z,0.00
2022-11-09T01:20:50.034Z,0.00
2022-11-09T01:21:49.968Z,0.00
2022-11-09T01:22:49.969Z,0.00
2022-11-09T01:23:49.969Z,0.00
2022-11-09T01:24:49.948Z,0.00
2022-11-09T01:25:49.963Z,0.00
2022-11-09T01:26:49.964Z,0.00
2022-11-09T01:27:49.932Z,0.00
2022-11-09T01:28:49.930Z,0.00
2022-11-09T01:29:49.976Z,0.00
2022-11-09T01:30:49.902Z,0.00
2022-11-09T01:31:49.860Z,0.00
2022-11-09T01:32:49.864Z,0.00
2022-11-09T01:33:49.837Z,0.00
2022-11-09T01:34:49.825Z,0.00
2022-11-09T01:35:49.829Z,0.00
2022-11-09T01:36:49.830Z,0.00
2022-11-09T01:37:50.078Z,0.00
2022-11-09T01:38:49.837Z,0.00
2022-11-09T01:39:49.781Z,0.00
2022-11-09T01:40:49.816Z,0.00
2022-11-09T01:41:49.769Z,0.00
2022-11-09T01:42:49.750Z,0.00
2022-11-09T01:43:49.756Z,0.00
2022-11-09T01:44:49.750Z,0.00
2022-11-09T01:45:49.834Z,0.00
2022-11-09T01:46:49.699Z,0.00
2022-11-09T01:47:49.691Z,0.00
2022-11-09T01:48:49.701Z,0.00
2022-11-09T01:49:49.708Z,0.00
2022-11-09T01:50:49.656Z,0.00
2022-11-09T01:51:49.667Z,0.00
2022-11-09T01:52:49.663Z,0.00
2022-11-09T01:53:49.633Z,0.00
2022-11-09T01:54:49.663Z,0.00
2022-11-09T01:55:49.613Z,0.00
2022-11-09T01:56:49.610Z,0.00
2022-11-09T01:57:49.609Z,0.00
2022-11-09T01:58:49.725Z,0.00
2022-11-09T01:59:49.568Z,0.00
2022-11-09T02:00:49.601Z,0.00
2022-11-09T02:01:49.578Z,0.00
2022-11-09T02:02:49.573Z,0.00
2022-11-09T02:03:49.573Z,0.00
2022-11-09T02:04:49.520Z,0.00
2022-11-09T02:05:49.492Z,0.00
2022-11-09T02:06:49.537Z,0.00
2022-11-09T02:07:49.556Z,0.00
2022-11-09T02:08:49.483Z,0.00
2022-11-09T02:09:49.475Z,0.00
2022-11-09T02:10:49.589Z,0.00
2022-11-09T02:11:49.441Z,0.00
2022-11-09T02:12:49.466Z,0.00
2022-11-09T02:13:49.442Z,0.00
2022-11-09T02:14:49.398Z,0.00
2022-11-09T02:15:49.480Z,0.00
2022-11-09T02:16:49.440Z,0.00
2022-11-09T02:17:49.380Z,0.00
2022-11-09T02:18:49.395Z,0.00
2022-11-09T02:19:49.343Z,0.00
2022-11-09T02:20:49.361Z,0.00
2022-11-09T02:21:49.321Z,0.00
2022-11-09T02:22:49.382Z,0.00
2022-11-09T02:23:49.291Z,0.00
2022-11-09T02:24:51.804Z,0.00
2022-11-09T02:25:50.316Z,0.00
2022-11-09T02:26:49.262Z,0.00
2022-11-09T02:27:49.272Z,0.00
2022-11-09T02:28:49.264Z,0.00
2022-11-09T02:29:49.272Z,0.00
2022-11-09T02:30:49.222Z,0.00
2022-11-09T02:31:49.225Z,0.00
2022-11-09T02:32:49.204Z,0.00
2022-11-09T02:33:49.203Z,0.00
2022-11-09T02:34:49.176Z,0.00
2022-11-09T02:35:49.262Z,0.00
2022-11-09T02:36:49.267Z,0.00
2022-11-09T02:37:49.151Z,0.00
2022-11-09T02:38:49.130Z,0.00
2022-11-09T02:39:49.122Z,0.00
2022-11-09T02:40:49.135Z,0.00
2022-11-09T02:41:49.130Z,0.00
2022-11-09T02:42:49.083Z,0.00
2022-11-09T02:43:49.184Z,0.00
2022-11-09T02:44:49.071Z,0.00
2022-11-09T02:45:49.079Z,0.00
2022-11-09T02:46:49.072Z,0.00
2022-11-09T02:47:49.058Z,0.00
2022-11-09T02:48:49.044Z,0.00
2022-11-09T02:49:49.008Z,0.00
2022-11-09T02:50:49.051Z,0.00
2022-11-09T02:51:49.014Z,0.00
2022-11-09T02:52:49.030Z,0.00
2022-11-09T02:53:48.971Z,0.00
2022-11-09T02:54:48.978Z,0.00
2022-11-09T02:55:48.968Z,0.00
2022-11-09T02:56:49.003Z,0.00
2022-11-09T02:57:48.927Z,0.00
2022-11-09T02:58:48.916Z,0.00
2022-11-09T02:59:48.912Z,0.00
2022-11-09T03:00:48.946Z,0.00
2022-11-09T03:01:48.898Z,0.00
2022-11-09T03:02:48.912Z,0.00
2022-11-09T03:03:48.866Z,0.00
2022-11-09T03:04:48.865Z,0.00
2022-11-09T03:05:48.861Z,0.00
2022-11-09T03:06:48.891Z,0.00
2022-11-09T03:07:48.859Z,0.00
2022-11-09T03:08:48.804Z,0.00
2022-11-09T03:09:48.843Z,0.00
2022-11-09T03:10:48.809Z,0.00
2022-11-09T03:11:48.818Z,0.00
2022-11-09T03:12:48.797Z,0.00
2022-11-09T03:13:48.781Z,0.00
2022-11-09T03:14:48.751Z,0.00
2022-11-09T03:15:48.757Z,0.00
2022-11-09T03:16:50.825Z,0.00
2022-11-09T03:17:48.752Z,0.00
2022-11-09T03:18:48.735Z,0.00
2022-11-09T03:19:48.683Z,0.00
2022-11-09T03:20:48.684Z,0.00
2022-11-09T03:21:48.664Z,0.00
2022-11-09T03:22:48.711Z,0.00
2022-11-09T03:23:48.642Z,0.00
2022-11-09T03:24:48.638Z,0.00
2022-11-09T03:25:48.650Z,0.00
2022-11-09T03:26:48.635Z,0.00
2022-11-09T03:27:48.617Z,0.00
2022-11-09T03:28:48.639Z,0.00
2022-11-09T03:29:48.614Z,0.00
2022-11-09T03:30:48.585Z,0.00
2022-11-09T03:31:48.586Z,0.00
2022-11-09T03:32:50.786Z,0.00
2022-11-09T03:33:48.550Z,0.00
2022-11-09T03:34:48.545Z,0.00
2022-11-09T03:35:48.526Z,0.00
2022-11-09T03:36:48.545Z,0.00
2022-11-09T03:37:48.605Z,0.00
2022-11-09T03:38:48.482Z,0.00
2022-11-09T03:39:48.469Z,0.00
2022-11-09T03:40:48.545Z,0.00
2022-11-09T03:41:48.460Z,0.00
2022-11-09T03:42:48.477Z,0.00
2022-11-09T03:43:48.445Z,0.00
2022-11-09T03:44:48.469Z,0.00
2022-11-09T03:45:48.484Z,0.00
2022-11-09T03:46:48.461Z,0.00
2022-11-09T03:47:48.406Z,0.00
2022-11-09T03:48:48.386Z,0.00
2022-11-09T03:49:48.400Z,0.00
2022-11-09T03:50:48.372Z,0.00
2022-11-09T03:51:48.335Z,0.00
2022-11-09T03:52:48.355Z,0.00
2022-11-09T03:53:48.362Z,0.00
2022-11-09T03:54:48.300Z,0.00
2022-11-09T03:55:48.304Z,0.00
2022-11-09T03:56:48.279Z,0.00
2022-11-09T03:57:48.318Z,0.00
2022-11-09T03:58:48.290Z,0.00
2022-11-09T03:59:48.284Z,0.00
2022-11-09T04:00:48.285Z,0.00
2022-11-09T04:01:48.314Z,0.00
2022-11-09T04:02:48.222Z,0.00
2022-11-09T04:03:48.228Z,0.00
2022-11-09T04:04:48.222Z,0.00
2022-11-09T04:05:48.194Z,0.00
2022-11-09T04:06:48.323Z,0.00
2022-11-09T04:07:48.160Z,0.00
2022-11-09T04:08:51.404Z,0.00
2022-11-09T04:09:48.141Z,0.00
2022-11-09T04:10:48.143Z,0.00
2022-11-09T04:11:48.358Z,0.00
2022-11-09T04:12:48.108Z,0.00
2022-11-09T04:13:48.099Z,0.00
2022-11-09T04:14:48.109Z,0.00
2022-11-09T04:15:48.117Z,0.00
2022-11-09T04:16:48.140Z,0.00
2022-11-09T04:17:48.047Z,0.00
2022-11-09T04:18:48.108Z,0.00
2022-11-09T04:19:48.029Z,0.00
2022-11-09T04:20:48.159Z,0.00
2022-11-09T04:21:48.075Z,0.00
2022-11-09T04:22:48.030Z,0.00
2022-11-09T04:23:47.982Z,0.00
2022-11-09T04:24:47.974Z,0.00
2022-11-09T04:25:48.144Z,0.00
2022-11-09T04:26:47.951Z,0.00
2022-11-09T04:27:48.054Z,0.00
2022-11-09T04:28:47.946Z,0.00
2022-11-09T04:29:47.914Z,0.00
2022-11-09T04:30:47.920Z,0.00
2022-11-09T04:31:47.892Z,0.00
2022-11-09T04:32:47.888Z,0.00
2022-11-09T04:33:47.926Z,0.00
2022-11-09T04:34:47.865Z,0.00
2022-11-09T04:35:47.883Z,0.00
2022-11-09T04:36:47.840Z,0.00
2022-11-09T04:37:47.864Z,0.00
2022-11-09T04:38:47.819Z,0.00
2022-11-09T04:39:47.821Z,0.00
2022-11-09T04:40:47.838Z,0.00
2022-11-09T04:41:47.816Z,0.00
2022-11-09T04:42:47.803Z,0.00
2022-11-09T04:43:47.798Z,0.00
2022-11-09T04:44:47.756Z,0.00
2022-11-09T04:45:47.847Z,0.00
2022-11-09T04:46:47.763Z,0.00
2022-11-09T04:47:47.772Z,0.00
2022-11-09T04:48:47.803Z,0.00
2022-11-09T04:49:47.738Z,0.00
2022-11-09T04:50:47.686Z,0.00
2022-11-09T04:51:47.689Z,0.00
2022-11-09T04:52:47.769Z,0.00
2022-11-09T04:53:47.719Z,0.00
2022-11-09T04:54:47.663Z,0.00
2022-11-09T04:55:47.712Z,0.00
2022-11-09T04:56:47.632Z,0.00
2022-11-09T04:57:47.632Z,0.00
2022-11-09T04:58:47.653Z,0.00
2022-11-09T04:59:47.648Z,0.00
2022-11-09T05:00:47.649Z,0.00
2022-11-09T05:01:47.609Z,0.00
2022-11-09T05:02:47.576Z,0.00
2022-11-09T05:03:47.653Z,0.00
2022-11-09T05:04:47.572Z,0.00
2022-11-09T05:05:48.662Z,0.00
2022-11-09T05:06:47.603Z,0.00
2022-11-09T05:07:47.514Z,0.00
2022-11-09T05:08:47.523Z,0.00
2022-11-09T05:09:47.508Z,0.00
2022-11-09T05:10:47.562Z,0.00
2022-11-09T05:11:47.473Z,0.00
2022-11-09T05:12:47.466Z,0.00
2022-11-09T05:13:47.504Z,0.00
2022-11-09T05:14:47.450Z,0.00
2022-11-09T05:15:47.486Z,0.00
2022-11-09T05:16:47.482Z,0.00
2022-11-09T05:17:47.418Z,0.00
2022-11-09T05:18:47.405Z,0.00
2022-11-09T05:19:48.263Z,0.00
2022-11-09T05:20:47.372Z,0.00
2022-11-09T05:21:47.444Z,0.00
2022-11-09T05:22:47.386Z,0.00
2022-11-09T05:23:47.341Z,0.00
2022-11-09T05:24:47.353Z,0.00
2022-11-09T05:25:47.361Z,0.00
2022-11-09T05:26:47.295Z,0.00
2022-11-09T05:27:47.282Z,0.00
2022-11-09T05:28:47.319Z,0.00
2022-11-09T05:29:47.310Z,0.00
2022-11-09T05:30:47.258Z,0.00
2022-11-09T05:31:52.006Z,0.00
2022-11-09T05:32:47.234Z,0.00
2022-11-09T05:33:47.244Z,0.00
2022-11-09T05:34:47.234Z,0.00
2022-11-09T05:35:47.194Z,0.00
2022-11-09T05:36:47.184Z,0.00
2022-11-09T05:37:47.173Z,0.00
2022-11-09T05:38:47.194Z,0.00
2022-11-09T05:39:47.191Z,0.00
2022-11-09T05:40:47.171Z,0.00
2022-11-09T05:41:47.158Z,0.00
2022-11-09T05:42:47.142Z,0.00
2022-11-09T05:43:47.111Z,0.00
2022-11-09T05:44:47.152Z,0.00
2022-11-09T05:45:47.157Z,0.00
2022-11-09T05:46:47.116Z,0.00
2022-11-09T05:47:47.086Z,0.00
2022-11-09T05:48:47.125Z,0.00
2022-11-09T05:49:47.052Z,0.00
2022-11-09T05:50:47.066Z,0.00
2022-11-09T05:51:47.075Z,0.00
2022-11-09T05:52:47.013Z,0.00
2022-11-09T05:53:47.318Z,0.00
2022-11-09T05:54:47.055Z,0.00
2022-11-09T05:55:47.049Z,0.00
2022-11-09T05:56:46.975Z,0.00
2022-11-09T05:57:46.973Z,0.00
2022-11-09T05:58:46.992Z,0.00
2022-11-09T05:59:46.967Z,0.00
2022-11-09T06:00:46.998Z,0.00
2022-11-09T06:01:46.976Z,4.00
2022-11-09T06:02:46.918Z,4.00
2022-11-09T06:03:46.936Z,4.00
2022-11-09T06:04:46.880Z,0.00
2022-11-09T06:05:46.913Z,4.00
2022-11-09T06:06:46.909Z,4.00
2022-11-09T06:07:46.887Z,4.00
2022-11-09T06:08:46.890Z,4.00
2022-11-09T06:09:46.875Z,8.00
2022-11-09T06:10:46.848Z,8.00
2022-11-09T06:11:46.808Z,8.00
2022-11-09T06:12:46.880Z,4.00
2022-11-09T06:13:46.820Z,8.00
2022-11-09T06:14:46.784Z,8.00
2022-11-09T06:15:46.851Z,12.00
2022-11-09T06:16:46.767Z,12.00
2022-11-09T06:17:46.780Z,12.00
2022-11-09T06:18:46.756Z,16.00
2022-11-09T06:19:46.731Z,20.00
2022-11-09T06:20:46.778Z,20.00
2022-11-09T06:21:46.735Z,28.00
2022-11-09T06:22:46.696Z,28.00
2022-11-09T06:23:46.723Z,32.00
2022-11-09T06:24:46.676Z,36.00
2022-11-09T06:25:46.690Z,40.00
2022-11-09T06:26:46.648Z,40.00
2022-11-09T06:27:46.681Z,40.00
2022-11-09T06:28:46.655Z,40.00
2022-11-09T06:29:46.628Z,40.00
2022-11-09T06:30:46.660Z,44.00
2022-11-09T06:31:46.634Z,48.00
2022-11-09T06:32:46.579Z,56.00
2022-11-09T06:33:46.573Z,56.00
2022-11-09T06:34:46.562Z,56.00
2022-11-09T06:35:46.610Z,60.00
2022-11-09T06:36:46.571Z,56.00
2022-11-09T06:37:46.563Z,52.00
2022-11-09T06:38:46.598Z,52.00
2022-11-09T06:39:46.621Z,52.00
2022-11-09T06:40:46.539Z,64.00
2022-11-09T06:41:47.785Z,84.00
2022-11-09T06:42:46.558Z,124.00
2022-11-09T06:43:46.456Z,180.00
2022-11-09T06:44:46.485Z,240.00
2022-11-09T06:45:46.524Z,264.00
2022-11-09T06:46:46.413Z,276.00
2022-11-09T06:47:46.431Z,292.00
2022-11-09T06:48:49.451Z,316.00
2022-11-09T06:49:47.428Z,324.00
2022-11-09T06:50:46.414Z,316.00
2022-11-09T06:51:46.367Z,336.00
2022-11-09T06:52:46.360Z,368.00
2022-11-09T06:53:46.339Z,400.00
2022-11-09T06:54:46.335Z,420.00
2022-11-09T06:55:50.572Z,404.00
2022-11-09T06:56:46.412Z,400.00
2022-11-09T06:57:46.334Z,440.00
2022-11-09T06:58:46.319Z,516.00
2022-11-09T06:59:46.318Z,492.00
2022-11-09T07:00:46.338Z,344.00
2022-11-09T07:01:46.494Z,340.00
2022-11-09T07:02:46.266Z,444.00
2022-11-09T07:03:46.280Z,512.00
2022-11-09T07:04:46.263Z,436.00
2022-11-09T07:05:46.224Z,624.00
2022-11-09T07:06:46.322Z,892.00
2022-11-09T07:07:46.194Z,1028.00
2022-11-09T07:08:46.273Z,1076.00
2022-11-09T07:09:46.195Z,980.00
2022-11-09T07:10:46.195Z,868.00
2022-11-09T07:11:46.192Z,852.00
2022-11-09T07:12:46.150Z,844.00
2022-11-09T07:13:46.141Z,876.00
2022-11-09T07:14:46.195Z,964.00
2022-11-09T07:15:46.097Z,948.00
2022-11-09T07:16:46.136Z,852.00
2022-11-09T07:17:46.100Z,800.00
2022-11-09T07:18:46.092Z,604.00
2022-11-09T07:19:46.077Z,492.00
2022-11-09T07:20:46.041Z,404.00
2022-11-09T07:21:46.045Z,376.00
2022-11-09T07:22:46.061Z,376.00
2022-11-09T07:23:46.026Z,408.00
2022-11-09T07:24:46.104Z,452.00
2022-11-09T07:25:45.988Z,472.00
2022-11-09T07:26:46.007Z,464.00
2022-11-09T07:27:46.028Z,464.00
2022-11-09T07:28:45.975Z,572.00
2022-11-09T07:29:45.974Z,696.00
2022-11-09T07:30:45.960Z,984.00
2022-11-09T07:31:46.000Z,1292.00
2022-11-09T07:33:15.668Z,1400.00
2022-11-09T07:33:46.930Z,1360.00
2022-11-09T07:34:45.885Z,1352.00
2022-11-09T07:35:45.905Z,1496.00
2022-11-09T07:36:45.892Z,1592.00
2022-11-09T07:37:45.900Z,1672.00
2022-11-09T07:38:45.859Z,1604.00
2022-11-09T07:39:45.895Z,1520.00
2022-11-09T07:40:45.864Z,1696.00
2022-11-09T07:41:45.812Z,1816.00
2022-11-09T07:42:45.833Z,1836.00
2022-11-09T07:43:45.937Z,1800.00
2022-11-09T07:44:45.807Z,1660.00
2022-11-09T07:45:45.844Z,1524.00
2022-11-09T07:46:45.787Z,1420.00
2022-11-09T07:47:45.754Z,1268.00
2022-11-09T07:48:45.758Z,1216.00
2022-11-09T07:49:45.773Z,1248.00
2022-11-09T07:50:45.725Z,1384.00
2022-11-09T07:51:45.790Z,1512.00
2022-11-09T07:52:45.689Z,1664.00
2022-11-09T07:53:45.676Z,1808.00
2022-11-09T07:54:50.887Z,1968.00
2022-11-09T07:55:46.742Z,2104.00
2022-11-09T07:56:45.706Z,2476.00
2022-11-09T07:57:45.635Z,3060.00
2022-11-09T07:58:45.692Z,3384.00
2022-11-09T07:59:45.682Z,3728.00
2022-11-09T08:00:45.661Z,3912.00
2022-11-09T08:01:45.640Z,4432.00
2022-11-09T08:02:45.609Z,5732.00
2022-11-09T08:03:45.573Z,6916.00
2022-11-09T08:04:45.630Z,7712.00
2022-11-09T08:05:45.581Z,7772.00
2022-11-09T08:06:45.620Z,7700.00
2022-11-09T08:07:45.555Z,7860.00
2022-11-09T08:08:45.518Z,8380.00
2022-11-09T08:09:45.652Z,8420.00
2022-11-09T08:10:45.525Z,8848.00
2022-11-09T08:11:45.500Z,9544.00
2022-11-09T08:12:45.485Z,9264.00
2022-11-09T08:13:45.460Z,9432.00
2022-11-09T08:14:45.558Z,9936.00
2022-11-09T08:15:45.463Z,9772.00
2022-11-09T08:16:45.430Z,9708.00
2022-11-09T08:17:45.555Z,9988.00
2022-11-09T08:18:45.409Z,9932.00
2022-11-09T08:19:45.455Z,8892.00
2022-11-09T08:20:45.411Z,7636.00
2022-11-09T08:21:45.396Z,7136.00
2022-11-09T08:22:45.429Z,7864.00
2022-11-09T08:23:45.387Z,9368.00
2022-11-09T08:24:45.353Z,10504.00
2022-11-09T08:25:45.396Z,9952.00
2022-11-09T08:26:45.347Z,9620.00
2022-11-09T08:27:45.348Z,8968.00
2022-11-09T08:28:45.322Z,9128.00
2022-11-09T08:29:45.281Z,9592.00
2022-11-09T08:30:45.306Z,10176.00
2022-11-09T08:31:45.289Z,10108.00
2022-11-09T08:32:45.249Z,10448.00
2022-11-09T08:33:45.261Z,10968.00
2022-11-09T08:34:45.228Z,10500.00
2022-11-09T08:35:48.033Z,9336.00
2022-11-09T08:36:46.243Z,8144.00
2022-11-09T08:37:45.217Z,7952.00
2022-11-09T08:38:45.195Z,7844.00
2022-11-09T08:39:45.203Z,9040.00
2022-11-09T08:40:45.169Z,9960.00
2022-11-09T08:41:45.263Z,10644.00
2022-11-09T08:42:45.212Z,11304.00
2022-11-09T08:43:45.168Z,11332.00
2022-11-09T08:44:45.128Z,11088.00
2022-11-09T08:45:45.142Z,11348.00
2022-11-09T08:46:45.147Z,10844.00
2022-11-09T08:47:45.134Z,9200.00
2022-11-09T08:48:45.101Z,8904.00
2022-11-09T08:49:45.171Z,9224.00
2022-11-09T08:50:45.168Z,9940.00
2022-11-09T08:51:45.059Z,10488.00
2022-11-09T08:52:45.096Z,10852.00
2022-11-09T08:53:45.040Z,11000.00
2022-11-09T08:54:45.203Z,10924.00
2022-11-09T08:55:49.361Z,10840.00
2022-11-09T08:56:45.118Z,10876.00
2022-11-09T08:57:44.999Z,10776.00
2022-11-09T08:58:44.971Z,9808.00
2022-11-09T08:59:44.983Z,9688.00
2022-11-09T09:00:44.997Z,8956.00
2022-11-09T09:01:44.991Z,8112.00
2022-11-09T09:02:44.943Z,7232.00
2022-11-09T09:03:44.917Z,6556.00
2022-11-09T09:04:44.939Z,6024.00
2022-11-09T09:05:44.919Z,7388.00
2022-11-09T09:06:45.058Z,8668.00
2022-11-09T09:07:44.880Z,9416.00
2022-11-09T09:08:44.901Z,9272.00
2022-11-09T09:09:44.880Z,9612.00
2022-11-09T09:10:44.910Z,10448.00
2022-11-09T09:11:44.857Z,10056.00
2022-11-09T09:12:44.826Z,9888.00
2022-11-09T09:13:44.803Z,9172.00
2022-11-09T09:14:44.887Z,8756.00
2022-11-09T09:15:44.799Z,9344.00
2022-11-09T09:16:44.792Z,10788.00
2022-11-09T09:17:44.785Z,12872.00
2022-11-09T09:18:44.781Z,13784.00
2022-11-09T09:19:49.834Z,14412.00
2022-11-09T09:20:45.998Z,15012.00
2022-11-09T09:21:44.741Z,15036.00
2022-11-09T09:22:44.712Z,13936.00
2022-11-09T09:23:44.731Z,12656.00
2022-11-09T09:24:44.676Z,12484.00
2022-11-09T09:25:44.699Z,12848.00
2022-11-09T09:26:44.751Z,12860.00
2022-11-09T09:27:44.673Z,12404.00
2022-11-09T09:28:51.381Z,12432.00
2022-11-09T09:29:47.274Z,12196.00
2022-11-09T09:30:44.652Z,11940.00
2022-11-09T09:31:44.599Z,11520.00
2022-11-09T09:32:44.600Z,11200.00
2022-11-09T09:33:44.587Z,11228.00
2022-11-09T09:34:44.615Z,11316.00
2022-11-09T09:35:44.593Z,11360.00
2022-11-09T09:36:47.944Z,11276.00
2022-11-09T09:37:49.644Z,11488.00
2022-11-09T09:38:44.520Z,11580.00
2022-11-09T09:39:44.523Z,11528.00
2022-11-09T09:40:44.545Z,11060.00
2022-11-09T09:41:44.506Z,10612.00
2022-11-09T09:42:44.475Z,10416.00
2022-11-09T09:43:44.490Z,10544.00
2022-11-09T09:44:44.517Z,10988.00
2022-11-09T09:45:44.513Z,11496.00
2022-11-09T09:46:50.259Z,12004.00
2022-11-09T09:47:45.456Z,12356.00
2022-11-09T09:48:44.496Z,12216.00
2022-11-09T09:49:44.500Z,11676.00
2022-11-09T09:50:44.391Z,11136.00
2022-11-09T09:51:44.429Z,10536.00
2022-11-09T09:52:54.130Z,9912.00
2022-11-09T09:53:45.422Z,9460.00
2022-11-09T09:54:45.356Z,9384.00
2022-11-09T09:55:51.593Z,9688.00
2022-11-09T09:56:44.343Z,10028.00
2022-11-09T09:57:44.333Z,10084.00
2022-11-09T09:58:44.300Z,9992.00
2022-11-09T09:59:44.298Z,9480.00
2022-11-09T10:00:44.371Z,9660.00
2022-11-09T10:01:44.368Z,9292.00
2022-11-09T10:02:44.296Z,9292.00
2022-11-09T10:03:44.840Z,8996.00
2022-11-09T10:04:51.228Z,8424.00
2022-11-09T10:05:45.305Z,9308.00
2022-11-09T10:06:44.310Z,10768.00
2022-11-09T10:07:44.218Z,11416.00
2022-11-09T10:08:44.226Z,10928.00
2022-11-09T10:09:44.217Z,9564.00
2022-11-09T10:10:44.174Z,8212.00
2022-11-09T10:11:44.179Z,7576.00
2022-11-09T10:12:44.277Z,7676.00
2022-11-09T10:13:44.335Z,8496.00
2022-11-09T10:14:44.199Z,8504.00
2022-11-09T10:15:44.142Z,8680.00
2022-11-09T10:16:44.130Z,8964.00
2022-11-09T10:17:44.110Z,9036.00
2022-11-09T10:18:44.104Z,8976.00
2022-11-09T10:19:44.139Z,9388.00
2022-11-09T10:20:44.515Z,9512.00
2022-11-09T10:21:44.671Z,9304.00
2022-11-09T10:22:51.592Z,8712.00
2022-11-09T10:23:45.042Z,8456.00
2022-11-09T10:24:58.575Z,8276.00
2022-11-09T10:26:03.163Z,8232.00
2022-11-09T10:26:45.007Z,8148.00
2022-11-09T10:27:44.065Z,8008.00
2022-11-09T10:29:13.879Z,7868.00
2022-11-09T10:29:45.052Z,7824.00
2022-11-09T10:30:44.268Z,7840.00
2022-11-09T10:31:49.721Z,7804.00
2022-11-09T10:32:44.983Z,7780.00
2022-11-09T10:33:43.949Z,7784.00
2022-11-09T10:34:43.930Z,7764.00
2022-11-09T10:35:43.899Z,7688.00
2022-11-09T10:36:43.891Z,7712.00
2022-11-09T10:37:43.880Z,7836.00
2022-11-09T10:38:43.875Z,8120.00
2022-11-09T10:39:45.845Z,8476.00
2022-11-09T10:40:46.775Z,8812.00
2022-11-09T10:41:43.833Z,9092.00
2022-11-09T10:42:43.846Z,9300.00
2022-11-09T10:43:43.844Z,9516.00
2022-11-09T10:44:43.816Z,9744.00
2022-11-09T10:45:43.866Z,9956.00
2022-11-09T10:46:43.784Z,10100.00
2022-11-09T10:47:43.786Z,10088.00
2022-11-09T10:48:46.258Z,9932.00
2022-11-09T10:49:46.283Z,9720.00
2022-11-09T10:50:43.741Z,9440.00
2022-11-09T10:51:43.725Z,9224.00
2022-11-09T10:52:47.490Z,9088.00
2022-11-09T10:53:43.698Z,9012.00
2022-11-09T10:54:43.700Z,8996.00
2022-11-09T10:55:43.738Z,9120.00
2022-11-09T10:57:05.152Z,9384.00
2022-11-09T10:57:48.296Z,9656.00
2022-11-09T10:58:43.644Z,9888.00
2022-11-09T10:59:43.681Z,10100.00
2022-11-09T11:00:43.624Z,10196.00
2022-11-09T11:01:43.796Z,10112.00
2022-11-09T11:02:43.661Z,9812.00
2022-11-09T11:03:43.621Z,9368.00
2022-11-09T11:04:43.666Z,9084.00
2022-11-09T11:05:43.589Z,8960.00
2022-11-09T11:06:44.174Z,8988.00
2022-11-09T11:07:45.140Z,9000.00
2022-11-09T11:08:43.548Z,9012.00
2022-11-09T11:09:43.559Z,9132.00
2022-11-09T11:10:43.515Z,9400.00
2022-11-09T11:11:43.533Z,9740.00
2022-11-09T11:12:43.495Z,10076.00
2022-11-09T11:13:43.492Z,10344.00
2022-11-09T11:14:43.951Z,10584.00
2022-11-09T11:15:44.519Z,10716.00
2022-11-09T11:16:43.479Z,10648.00
2022-11-09T11:17:43.453Z,10428.00
2022-11-09T11:18:43.434Z,10140.00
2022-11-09T11:19:44.411Z,9800.00
2022-11-09T11:20:43.465Z,9552.00
2022-11-09T11:21:43.414Z,9472.00
2022-11-09T11:22:43.380Z,9480.00
2022-11-09T11:23:43.474Z,9516.00
2022-11-09T11:24:46.331Z,9404.00
2022-11-09T11:25:43.344Z,9240.00
2022-11-09T11:26:43.342Z,9124.00
2022-11-09T11:27:43.328Z,9092.00
2022-11-09T11:28:43.333Z,9048.00
2022-11-09T11:29:43.354Z,8880.00
2022-11-09T11:30:43.298Z,8720.00
2022-11-09T11:31:43.299Z,8480.00
2022-11-09T11:32:49.874Z,8128.00
2022-11-09T11:33:44.780Z,7752.00
2022-11-09T11:34:59.843Z,7452.00
2022-11-09T11:35:44.248Z,7452.00
2022-11-09T11:36:43.227Z,7608.00
2022-11-09T11:37:43.275Z,7960.00
2022-11-09T11:38:43.206Z,8072.00
2022-11-09T11:39:43.366Z,7984.00
2022-11-09T11:40:43.188Z,7808.00
2022-11-09T11:41:43.554Z,7628.00
2022-11-09T11:42:46.314Z,7480.00
2022-11-09T11:43:43.148Z,7416.00
2022-11-09T11:44:43.217Z,7464.00
2022-11-09T11:45:43.159Z,7648.00
2022-11-09T11:46:43.132Z,7924.00
2022-11-09T11:47:43.101Z,8204.00
2022-11-09T11:48:43.097Z,8404.00
2022-11-09T11:49:43.119Z,8420.00
2022-11-09T11:50:43.218Z,8484.00
2022-11-09T11:51:45.824Z,8804.00
2022-11-09T11:52:43.093Z,9024.00
2022-11-09T11:53:43.671Z,9136.00
2022-11-09T11:54:43.061Z,9216.00
2022-11-09T11:55:43.011Z,9460.00
2022-11-09T11:56:43.036Z,9744.00
2022-11-09T11:57:43.030Z,9760.00
2022-11-09T11:58:43.018Z,9492.00
2022-11-09T11:59:43.425Z,9164.00
2022-11-09T12:00:46.820Z,9184.00
2022-11-09T12:01:42.943Z,9044.00
2022-11-09T12:02:43.014Z,8840.00
2022-11-09T12:03:46.941Z,8612.00
2022-11-09T12:04:43.937Z,8504.00
2022-11-09T12:05:42.920Z,8564.00
2022-11-09T12:06:44.317Z,8220.00
2022-11-09T12:07:42.903Z,7920.00
2022-11-09T12:08:42.921Z,8052.00
2022-11-09T12:09:49.482Z,7968.00
2022-11-09T12:10:42.848Z,7772.00
2022-11-09T12:11:42.847Z,7644.00
2022-11-09T12:12:42.857Z,7644.00
2022-11-09T12:13:48.435Z,8284.00
2022-11-09T12:14:43.820Z,9172.00
2022-11-09T12:15:42.967Z,9540.00
2022-11-09T12:16:43.516Z,9848.00
2022-11-09T12:17:42.780Z,10148.00
2022-11-09T12:18:43.503Z,10456.00
2022-11-09T12:19:42.787Z,10600.00
2022-11-09T12:20:42.752Z,10884.00
2022-11-09T12:21:42.757Z,10604.00
2022-11-09T12:22:42.771Z,9928.00
2022-11-09T12:23:42.772Z,9032.00
2022-11-09T12:24:42.752Z,8056.00
2022-11-09T12:25:42.751Z,7240.00
2022-11-09T12:26:43.555Z,6640.00
2022-11-09T12:27:42.792Z,6476.00
2022-11-09T12:28:42.703Z,6512.00
2022-11-09T12:29:42.667Z,6652.00
2022-11-09T12:30:42.626Z,6752.00
2022-11-09T12:31:42.620Z,6592.00
2022-11-09T12:32:42.651Z,6380.00
2022-11-09T12:33:44.051Z,6164.00
2022-11-09T12:34:43.024Z,6224.00
2022-11-09T12:35:48.398Z,6604.00
2022-11-09T12:36:42.567Z,6896.00
2022-11-09T12:37:42.577Z,7412.00
2022-11-09T12:38:42.538Z,7764.00
2022-11-09T12:39:42.545Z,7788.00
2022-11-09T12:40:42.526Z,7572.00